createdAt,value
2019-04-05T00:01:23.546Z,53.53
2019-04-05T00:03:52.287Z,60.87
2019-04-05T00:06:20.778Z,54.47
2019-04-05T00:08:49.281Z,52.53
2019-04-05T00:11:18.064Z,55.27
2019-04-05T00:13:46.525Z,55.30
2019-04-05T00:16:14.996Z,63.70
2019-04-05T00:18:43.500Z,55.03
2019-04-05T00:21:11.978Z,61.60
2019-04-05T00:23:40.457Z,59.80
2019-04-05T00:26:09.202Z,57.23
2019-04-05T00:28:37.654Z,55.90
2019-04-05T00:31:06.135Z,74.03
2019-04-05T00:33:34.586Z,61.97
2019-04-05T00:36:03.075Z,72.63
2019-04-05T00:38:31.555Z,72.27
2019-04-05T00:41:00.045Z,68.53
2019-04-05T00:43:28.514Z,69.00
2019-04-05T00:45:57.087Z,74.23
2019-04-05T00:48:25.579Z,68.43
2019-04-05T00:50:54.050Z,66.80
2019-04-05T00:53:22.862Z,80.83
2019-04-05T00:55:51.405Z,83.07
2019-04-05T00:58:19.862Z,84.83
2019-04-05T01:00:48.353Z,79.87
2019-04-05T01:03:16.835Z,76.00
2019-04-05T01:05:45.638Z,72.87
2019-04-05T01:08:14.093Z,79.07
2019-04-05T01:10:42.594Z,74.10
2019-04-05T01:13:11.088Z,66.47
2019-04-05T01:15:41.041Z,64.70
2019-04-05T01:18:10.070Z,77.77
2019-04-05T01:20:38.561Z,69.73
2019-04-05T01:23:07.072Z,76.07
2019-04-05T01:25:36.569Z,72.53
2019-04-05T01:28:05.039Z,87.43
2019-04-05T01:30:33.517Z,66.13
2019-04-05T01:33:02.299Z,66.23
2019-04-05T01:35:30.805Z,73.47
2019-04-05T01:37:59.389Z,76.57
2019-04-05T01:40:28.553Z,85.43
2019-04-05T01:42:57.074Z,77.73
2019-04-05T01:45:25.553Z,73.10
2019-04-05T01:47:54.030Z,82.87
2019-04-05T01:50:22.516Z,81.07
2019-04-05T01:52:50.988Z,62.40
2019-04-05T01:55:19.480Z,76.80
2019-04-05T01:57:47.958Z,68.13
2019-04-05T02:00:16.715Z,70.03
2019-04-05T02:02:45.203Z,74.93
2019-04-05T02:05:13.693Z,67.47
2019-04-05T02:07:42.176Z,69.20
2019-04-05T02:10:10.713Z,66.10
2019-04-05T02:12:39.213Z,69.20
2019-04-05T02:15:07.675Z,70.27
2019-04-05T02:17:36.218Z,81.63
2019-04-05T02:20:05.331Z,76.33
2019-04-05T02:22:33.810Z,75.77
2019-04-05T02:25:02.560Z,75.07
2019-04-05T02:27:31.056Z,71.70
2019-04-05T02:29:59.514Z,74.07
2019-04-05T02:32:28.001Z,74.57
2019-04-05T02:34:56.487Z,78.27
2019-04-05T02:37:24.979Z,61.33
2019-04-05T02:39:53.467Z,71.30
2019-04-05T02:42:22.070Z,65.80
2019-04-05T02:44:50.545Z,68.60
2019-04-05T02:47:19.282Z,59.43
2019-04-05T02:49:47.740Z,76.30
2019-04-05T02:52:16.270Z,74.53
2019-04-05T02:54:44.928Z,69.07
2019-04-05T02:57:13.409Z,65.60
2019-04-05T02:59:41.868Z,77.27
2019-04-05T03:02:10.330Z,76.87
2019-04-05T03:04:38.864Z,77.00
2019-04-05T03:07:07.322Z,62.50
2019-04-05T03:09:35.890Z,79.93
2019-04-05T03:12:04.471Z,79.60
2019-04-05T03:14:33.004Z,75.70
2019-04-05T03:17:01.494Z,68.50
2019-04-05T03:19:31.259Z,65.50
2019-04-05T03:22:03.108Z,71.90
2019-04-05T03:24:31.640Z,68.27
2019-04-05T03:27:02.558Z,81.83
2019-04-05T03:29:31.056Z,78.50
2019-04-05T03:31:59.589Z,79.87
2019-04-05T03:34:28.164Z,71.90
2019-04-05T03:36:56.630Z,77.63
2019-04-05T03:39:25.170Z,75.23
2019-04-05T03:41:53.922Z,74.33
2019-04-05T03:44:23.357Z,78.33
2019-04-05T03:46:56.980Z,68.70
2019-04-05T03:49:22.544Z,75.53
2019-04-05T03:51:51.017Z,83.80
2019-04-05T03:54:19.466Z,89.70
2019-04-05T03:56:47.932Z,92.03
2019-04-05T03:59:16.403Z,98.77
2019-04-05T04:01:44.863Z,91.53
2019-04-05T04:04:13.346Z,88.00
2019-04-05T04:06:41.877Z,79.37
2019-04-05T04:09:10.357Z,80.67
2019-04-05T04:11:38.868Z,84.33
2019-04-05T04:14:07.546Z,92.87
2019-04-05T04:16:36.247Z,83.40
2019-04-05T04:19:04.752Z,83.80
2019-04-05T04:21:43.483Z,83.43
2019-04-05T04:24:11.995Z,87.73
2019-04-05T04:26:40.617Z,91.13
2019-04-05T04:29:09.101Z,96.63
2019-04-05T04:31:37.588Z,90.87
2019-04-05T04:34:06.684Z,104.20
2019-04-05T04:36:35.244Z,102.93
2019-04-05T04:39:04.970Z,86.43
2019-04-05T04:41:33.447Z,97.03
2019-04-05T04:44:02.022Z,101.17
2019-04-05T04:46:30.479Z,92.17
2019-04-05T04:48:58.991Z,95.23
2019-04-05T04:51:27.482Z,88.07
2019-04-05T04:53:56.063Z,79.97
2019-04-05T04:56:24.602Z,83.40
2019-04-05T04:58:53.181Z,74.07
2019-04-05T05:01:21.764Z,76.60
2019-04-05T05:03:50.241Z,85.33
2019-04-05T05:06:18.829Z,77.73
2019-04-05T05:08:47.319Z,77.73
2019-04-05T05:11:15.791Z,78.97
2019-04-05T05:13:44.270Z,71.37
2019-04-05T05:16:12.756Z,77.70
2019-04-05T05:18:41.227Z,76.13
2019-04-05T05:21:09.719Z,82.87
2019-04-05T05:23:38.209Z,74.30
2019-04-05T05:26:06.900Z,70.10
2019-04-05T05:28:35.567Z,90.23
2019-04-05T05:31:04.073Z,91.50
2019-04-05T05:33:32.593Z,77.37
2019-04-05T05:36:01.101Z,74.90
2019-04-05T05:38:30.098Z,87.87
2019-04-05T05:40:58.586Z,88.07
2019-04-05T05:43:27.099Z,88.73
2019-04-05T05:45:55.586Z,93.87
2019-04-05T05:48:24.084Z,80.07
2019-04-05T05:50:52.597Z,75.27
2019-04-05T05:53:21.120Z,92.13
2019-04-05T05:55:49.618Z,93.70
2019-04-05T05:58:18.411Z,95.10
2019-04-05T06:00:47.153Z,90.13
2019-04-05T06:03:16.687Z,85.87
2019-04-05T06:05:45.391Z,98.60
2019-04-05T06:08:13.875Z,82.90
2019-04-05T06:10:42.396Z,75.93
2019-04-05T06:13:11.178Z,80.20
2019-04-05T06:15:39.957Z,79.70
2019-04-05T06:18:11.924Z,85.17
2019-04-05T06:20:38.631Z,91.57
2019-04-05T06:23:07.403Z,95.63
2019-04-05T06:25:35.881Z,92.57
2019-04-05T06:28:04.362Z,79.07
2019-04-05T06:30:32.941Z,95.60
2019-04-05T06:33:01.424Z,89.20
2019-04-05T06:35:29.897Z,82.30
2019-04-05T06:37:58.364Z,79.43
2019-04-05T06:40:39.659Z,86.90
2019-04-05T06:42:57.332Z,74.33
2019-04-05T06:45:25.813Z,70.23
2019-04-05T06:47:54.547Z,74.83
2019-04-05T06:50:23.020Z,68.93
2019-04-05T06:52:51.520Z,82.27
2019-04-05T06:55:19.972Z,77.90
2019-04-05T06:57:48.469Z,75.37
2019-04-05T07:00:20.050Z,80.73
2019-04-05T07:02:48.537Z,72.00
2019-04-05T07:05:17.022Z,70.00
2019-04-05T07:07:45.499Z,62.03
2019-04-05T07:10:13.939Z,67.67
2019-04-05T07:12:42.468Z,63.30
2019-04-05T07:15:10.911Z,81.67
2019-04-05T07:17:39.472Z,79.13
2019-04-05T07:20:08.551Z,67.43
2019-04-05T07:22:39.453Z,69.87
2019-04-05T07:25:07.439Z,60.97
2019-04-05T07:27:35.956Z,83.33
2019-04-05T07:30:04.869Z,87.80
2019-04-05T07:32:33.333Z,79.83
2019-04-05T07:35:02.138Z,84.80
2019-04-05T07:37:30.624Z,77.20
2019-04-05T07:39:59.146Z,78.70
2019-04-05T07:42:27.609Z,80.27
2019-04-05T07:44:56.087Z,89.53
2019-04-05T07:47:24.541Z,76.83
2019-04-05T07:49:53.298Z,76.57
2019-04-05T07:52:21.775Z,76.30
2019-04-05T07:54:50.270Z,82.03
2019-04-05T07:57:18.753Z,94.27
2019-04-05T07:59:47.247Z,84.23
2019-04-05T08:02:15.765Z,81.33
2019-04-05T08:04:44.403Z,85.03
2019-04-05T08:07:13.476Z,80.87
2019-04-05T08:09:41.944Z,71.23
2019-04-05T08:12:10.403Z,73.77
2019-04-05T08:14:38.986Z,85.87
2019-04-05T08:17:07.456Z,84.13
2019-04-05T08:19:35.938Z,88.33
2019-04-05T08:22:04.487Z,85.57
2019-04-05T08:24:32.979Z,98.07
2019-04-05T08:27:01.449Z,81.20
2019-04-05T08:29:29.930Z,73.93
2019-04-05T08:31:58.420Z,87.90
2019-04-05T08:34:26.895Z,87.57
2019-04-05T08:36:55.369Z,87.67
2019-04-05T08:39:23.899Z,78.33
2019-04-05T08:41:52.376Z,95.93
2019-04-05T08:44:20.860Z,101.23
2019-04-05T08:46:49.361Z,83.17
2019-04-05T08:49:17.841Z,88.77
2019-04-05T08:51:46.315Z,97.70
2019-04-05T08:54:14.806Z,80.70
2019-04-05T08:56:43.290Z,86.60
2019-04-05T08:59:12.085Z,96.00
2019-04-05T09:01:40.578Z,111.43
2019-04-05T09:04:09.052Z,75.33
2019-04-05T09:06:37.583Z,87.37
2019-04-05T09:09:07.203Z,97.90
2019-04-05T09:11:35.987Z,91.60
2019-04-05T09:14:04.599Z,93.93
2019-04-05T09:16:33.084Z,90.27
2019-04-05T09:19:01.710Z,87.77
2019-04-05T09:21:30.234Z,94.20
2019-04-05T09:23:59.441Z,92.87
2019-04-05T09:26:28.052Z,75.70
2019-04-05T09:28:56.519Z,100.00
2019-04-05T09:31:25.590Z,96.17
2019-04-05T09:33:54.113Z,94.83
2019-04-05T09:36:22.656Z,100.20
2019-04-05T09:38:51.138Z,93.07
2019-04-05T09:41:19.644Z,96.43
2019-04-05T09:43:48.131Z,105.13
2019-04-05T09:46:16.616Z,94.23
2019-04-05T09:48:45.104Z,97.67
2019-04-05T09:51:13.698Z,99.90
2019-04-05T09:53:42.188Z,97.70
2019-04-05T09:56:10.680Z,96.47
2019-04-05T09:58:39.177Z,93.33
2019-04-05T10:01:07.666Z,93.33
2019-04-05T10:03:36.156Z,70.97
2019-04-05T10:06:04.912Z,82.83
2019-04-05T10:08:33.393Z,97.47
2019-04-05T10:11:02.095Z,92.73
2019-04-05T10:13:30.574Z,96.20
2019-04-05T10:15:59.043Z,75.73
2019-04-05T10:18:27.506Z,93.90
2019-04-05T10:20:55.972Z,94.10
2019-04-05T10:23:24.487Z,95.10
2019-04-05T10:25:52.986Z,88.50
2019-04-05T10:28:21.453Z,78.00
2019-04-05T10:30:51.972Z,87.27
2019-04-05T10:33:20.215Z,77.10
2019-04-05T10:35:48.724Z,88.53
2019-04-05T10:38:17.204Z,91.50
2019-04-05T10:40:45.700Z,97.00
2019-04-05T10:43:14.238Z,92.27
2019-04-05T10:45:42.723Z,81.63
2019-04-05T10:48:11.234Z,87.20
2019-04-05T10:50:39.738Z,99.57
2019-04-05T10:53:08.220Z,97.27
2019-04-05T10:55:36.758Z,86.17
2019-04-05T10:58:05.440Z,91.53
2019-04-05T11:00:33.955Z,86.57
2019-04-05T11:03:02.433Z,74.40
2019-04-05T11:05:31.010Z,82.43
2019-04-05T11:07:59.509Z,91.77
2019-04-05T11:10:28.014Z,93.03
2019-04-05T11:12:56.484Z,91.73
2019-04-05T11:15:24.963Z,97.03
2019-04-05T11:17:53.590Z,84.33
2019-04-05T11:20:22.817Z,83.80
2019-04-05T11:22:51.485Z,88.63
2019-04-05T11:25:20.786Z,84.83
2019-04-05T11:27:50.045Z,70.10
2019-04-05T11:30:35.783Z,82.20
2019-04-05T11:33:04.294Z,75.37
2019-04-05T11:35:32.796Z,91.67
2019-04-05T11:38:01.302Z,87.33
2019-04-05T11:40:29.771Z,73.13
2019-04-05T11:42:58.239Z,90.63
2019-04-05T11:45:26.723Z,87.53
2019-04-05T11:47:55.696Z,94.70
2019-04-05T11:50:34.526Z,80.30
2019-04-05T11:52:55.712Z,71.80
2019-04-05T11:55:24.207Z,88.80
2019-04-05T11:57:54.763Z,84.90
2019-04-05T12:00:28.378Z,95.37
2019-04-05T12:03:00.075Z,64.50
2019-04-05T12:05:28.868Z,83.73
2019-04-05T12:08:00.964Z,83.07
2019-04-05T12:10:27.634Z,90.40
2019-04-05T12:12:56.100Z,86.20
2019-04-05T12:15:24.589Z,85.40
2019-04-05T12:17:53.067Z,82.63
2019-04-05T12:20:21.541Z,92.10
2019-04-05T12:22:52.480Z,89.63
2019-04-05T12:25:20.267Z,87.70
2019-04-05T12:27:48.734Z,84.97
2019-04-05T12:30:19.947Z,87.17
2019-04-05T12:32:48.914Z,89.70
2019-04-05T12:35:21.389Z,69.90
2019-04-05T12:37:50.611Z,85.83
2019-04-05T12:40:18.315Z,87.70
2019-04-05T12:42:46.809Z,67.53
2019-04-05T12:45:15.642Z,73.93
2019-04-05T12:47:45.589Z,86.40
2019-04-05T12:50:15.324Z,86.40
2019-04-05T12:52:44.063Z,70.77
2019-04-05T12:55:12.532Z,85.90
2019-04-05T12:57:41.344Z,80.80
2019-04-05T13:00:13.217Z,88.57
2019-04-05T13:02:40.485Z,85.53
2019-04-05T13:05:08.972Z,84.27
2019-04-05T13:07:37.439Z,32.70
2019-04-05T13:10:06.212Z,45.87
2019-04-05T13:12:34.683Z,59.30
2019-04-05T13:15:11.728Z,58.80
2019-04-05T13:17:33.474Z,57.40
2019-04-05T13:20:01.958Z,62.03
2019-04-05T13:22:32.559Z,61.80
2019-04-05T13:25:00.661Z,62.90
2019-04-05T13:27:29.439Z,65.60
2019-04-05T13:29:57.914Z,63.00
2019-04-05T13:32:26.418Z,64.57
2019-04-05T13:34:55.852Z,68.33
2019-04-05T13:37:24.952Z,68.13
2019-04-05T13:39:53.427Z,58.63
2019-04-05T13:42:21.893Z,70.33
2019-04-05T13:44:50.362Z,70.27
2019-04-05T13:47:19.150Z,63.03
2019-04-05T13:49:47.655Z,68.33
2019-04-05T13:52:16.142Z,64.17
2019-04-05T13:54:44.639Z,80.97
2019-04-05T13:57:13.091Z,74.90
2019-04-05T13:59:44.464Z,83.60
2019-04-05T14:02:11.784Z,78.10
2019-04-05T14:04:40.244Z,77.00
2019-04-05T14:07:08.730Z,86.53
2019-04-05T14:09:38.490Z,85.93
2019-04-05T14:12:09.663Z,98.33
2019-04-05T14:14:39.436Z,88.37
2019-04-05T14:17:07.867Z,86.13
2019-04-05T14:19:36.432Z,87.17
2019-04-05T14:22:08.818Z,88.03
2019-04-05T14:24:35.095Z,83.70
2019-04-05T14:27:04.033Z,80.77
2019-04-05T14:29:33.333Z,81.10
2019-04-05T14:32:19.436Z,79.00
2019-04-05T14:34:32.489Z,83.00
2019-04-05T14:37:00.952Z,85.63
2019-04-05T14:39:29.432Z,79.63
2019-04-05T14:42:09.147Z,80.23
2019-04-05T14:44:28.338Z,88.37
2019-04-05T14:46:58.105Z,85.13
2019-04-05T14:49:30.258Z,92.37
2019-04-05T14:52:00.734Z,83.00
2019-04-05T14:54:30.186Z,84.83
2019-04-05T14:57:02.422Z,76.40
2019-04-05T14:59:28.309Z,87.23
2019-04-05T15:01:56.850Z,81.00
2019-04-05T15:04:25.327Z,88.90
2019-04-05T15:06:54.616Z,83.67
2019-04-05T15:09:25.544Z,85.07
2019-04-05T15:11:53.399Z,76.77
2019-04-05T15:14:21.893Z,71.97
2019-04-05T15:16:50.367Z,66.27
2019-04-05T15:19:19.157Z,76.00
2019-04-05T15:21:47.639Z,71.10
2019-04-05T15:24:17.147Z,82.43
2019-04-05T15:26:45.686Z,72.80
2019-04-05T15:29:14.179Z,74.67
2019-04-05T15:31:42.674Z,79.17
2019-04-05T15:34:11.134Z,88.97
2019-04-05T15:36:39.596Z,74.23
2019-04-05T15:39:08.918Z,93.73
2019-04-05T15:41:37.559Z,90.57
2019-04-05T15:44:06.098Z,79.97
2019-04-05T15:46:34.892Z,85.77
2019-04-05T15:49:03.382Z,83.30
2019-04-05T15:51:31.846Z,68.73
2019-04-05T15:54:01.399Z,82.07
2019-04-05T15:56:33.355Z,80.23
2019-04-05T15:59:03.597Z,91.97
2019-04-05T16:01:32.119Z,84.97
2019-04-05T16:04:02.820Z,96.07
2019-04-05T16:06:31.802Z,76.67
2019-04-05T16:09:00.343Z,80.93
2019-04-05T16:11:28.832Z,89.70
2019-04-05T16:13:57.607Z,89.00
2019-04-05T16:16:26.566Z,65.53
2019-04-05T16:18:55.067Z,83.47
2019-04-05T16:21:25.433Z,95.13
2019-04-05T16:23:53.982Z,87.37
2019-04-05T16:26:22.446Z,91.70
2019-04-05T16:28:50.927Z,92.73
2019-04-05T16:31:19.406Z,89.67
2019-04-05T16:33:47.914Z,87.83
2019-04-05T16:36:16.485Z,93.47
2019-04-05T16:38:44.982Z,92.13
2019-04-05T16:41:13.494Z,79.77
2019-04-05T16:43:42.086Z,67.63
2019-04-05T16:46:11.428Z,78.57
2019-04-05T16:48:39.927Z,72.97
2019-04-05T16:51:08.464Z,90.33
2019-04-05T16:53:38.605Z,89.57
2019-04-05T16:56:07.137Z,81.83
2019-04-05T16:58:35.624Z,80.40
2019-04-05T17:01:04.105Z,78.57
2019-04-05T17:03:32.902Z,77.13
2019-04-05T17:06:01.391Z,67.80
2019-04-05T17:08:29.872Z,68.63
2019-04-05T17:10:58.352Z,72.73
2019-04-05T17:13:26.837Z,73.97
2019-04-05T17:15:55.651Z,65.87
2019-04-05T17:18:24.186Z,72.60
2019-04-05T17:20:52.677Z,75.90
2019-04-05T17:23:21.150Z,66.87
2019-04-05T17:25:49.647Z,72.60
2019-04-05T17:28:18.144Z,68.87
2019-04-05T17:30:47.288Z,73.70
2019-04-05T17:33:15.763Z,70.37
2019-04-05T17:35:44.277Z,65.53
2019-04-05T17:38:12.747Z,66.87
2019-04-05T17:40:41.590Z,65.00
2019-04-05T17:43:10.058Z,75.87
2019-04-05T17:45:38.571Z,62.20
2019-04-05T17:48:07.350Z,61.80
2019-04-05T17:50:35.839Z,73.80
2019-04-05T17:53:12.020Z,64.63
2019-04-05T17:55:34.660Z,68.57
2019-04-05T17:58:05.053Z,72.37
2019-04-05T18:00:33.539Z,55.60
2019-04-05T18:03:02.067Z,63.70
2019-04-05T18:05:30.556Z,75.20
2019-04-05T18:07:59.042Z,83.17
2019-04-05T18:10:27.520Z,85.10
2019-04-05T18:12:56.008Z,71.43
2019-04-05T18:15:24.575Z,66.67
2019-04-05T18:17:53.412Z,67.33
2019-04-05T18:20:21.872Z,73.73
2019-04-05T18:22:50.389Z,69.67
2019-04-05T18:25:18.916Z,74.20
2019-04-05T18:27:47.392Z,70.83
2019-04-05T18:30:16.081Z,73.57
2019-04-05T18:32:44.582Z,73.80
2019-04-05T18:35:13.358Z,56.63
2019-04-05T18:37:41.946Z,71.97
2019-04-05T18:40:11.034Z,76.60
2019-04-05T18:42:39.524Z,74.90
2019-04-05T18:45:07.988Z,61.33
2019-04-05T18:47:36.486Z,65.90
2019-04-05T18:50:05.364Z,67.10
2019-04-05T18:52:33.852Z,70.83
2019-04-05T18:55:02.702Z,58.87
2019-04-05T18:57:31.459Z,75.70
2019-04-05T18:59:59.978Z,67.13
2019-04-05T19:02:28.460Z,71.53
2019-04-05T19:04:56.965Z,79.43
2019-04-05T19:07:25.484Z,79.50
2019-04-05T19:09:53.977Z,74.90
2019-04-05T19:12:22.483Z,78.43
2019-04-05T19:14:51.477Z,67.53
2019-04-05T19:17:24.129Z,73.93
2019-04-05T19:19:50.190Z,67.73
2019-04-05T19:22:18.670Z,66.17
2019-04-05T19:24:47.176Z,67.53
2019-04-05T19:27:15.642Z,74.40
2019-04-05T19:29:44.114Z,67.17
2019-04-05T19:49:44.463Z,63.37
2019-04-05T19:52:12.953Z,87.23
2019-04-05T19:54:41.436Z,74.33
2019-04-05T19:57:09.976Z,66.07
2019-04-05T19:59:38.478Z,75.40
2019-04-05T20:02:07.104Z,61.03
2019-04-05T20:04:35.920Z,82.87
2019-04-05T20:07:04.728Z,69.87
2019-04-05T20:09:33.228Z,69.43
2019-04-05T20:12:01.701Z,59.63
2019-04-05T20:14:30.204Z,60.40
2019-04-05T20:16:58.715Z,62.47
2019-04-05T20:19:27.235Z,77.60
2019-04-05T20:21:55.919Z,67.77
2019-04-05T20:24:25.208Z,62.00
2019-04-05T20:26:53.707Z,58.53
2019-04-05T20:29:22.287Z,67.77
2019-04-05T20:31:50.827Z,74.60
2019-04-05T20:34:19.313Z,58.03
2019-04-05T20:36:47.838Z,61.37
2019-04-05T20:39:16.387Z,67.60
2019-04-05T20:41:45.125Z,69.47
2019-04-05T20:44:13.622Z,52.17
2019-04-05T20:46:42.116Z,70.13
2019-04-05T20:49:12.022Z,71.43
2019-04-05T20:51:40.560Z,71.37
2019-04-05T20:54:09.025Z,65.40
2019-04-05T20:56:37.561Z,67.50
2019-04-05T20:59:06.074Z,77.93
2019-04-05T21:01:34.613Z,66.67
2019-04-05T21:04:03.060Z,66.30
2019-04-05T21:06:31.557Z,68.17
2019-04-05T21:09:00.404Z,67.10
2019-04-05T21:11:28.874Z,67.00
2019-04-05T21:13:57.388Z,59.17
2019-04-05T21:16:26.154Z,67.60
2019-04-05T21:18:54.634Z,54.50
2019-04-05T21:21:23.472Z,55.93
2019-04-05T21:23:51.960Z,52.33
2019-04-05T21:26:20.460Z,60.80
2019-04-05T21:28:48.961Z,66.43
2019-04-05T21:31:17.472Z,69.10
2019-04-05T21:33:46.078Z,68.27
2019-04-05T21:36:14.578Z,74.97
2019-04-05T21:38:43.074Z,71.73
2019-04-05T21:41:13.193Z,70.43
2019-04-05T21:43:41.847Z,69.63
2019-04-05T21:46:10.349Z,67.97
2019-04-05T21:48:38.883Z,69.00
2019-04-05T21:51:07.386Z,73.70
2019-04-05T21:53:36.007Z,70.57
2019-04-05T21:56:04.575Z,74.20
2019-04-05T21:58:33.086Z,70.47
2019-04-05T22:01:05.174Z,73.03
2019-04-05T22:03:33.698Z,68.10
2019-04-05T22:06:02.206Z,66.90
2019-04-05T22:08:30.719Z,72.80
2019-04-05T22:10:59.181Z,79.00
2019-04-05T22:13:27.700Z,73.00
2019-04-05T22:15:56.177Z,75.60
2019-04-05T22:18:24.678Z,70.57
2019-04-05T22:20:53.423Z,70.87
2019-04-05T22:23:22.214Z,63.70
2019-04-05T22:25:50.753Z,64.80
2019-04-05T22:28:19.566Z,66.47
2019-04-05T22:30:48.078Z,64.40
2019-04-05T22:33:16.574Z,72.47
2019-04-05T22:35:45.085Z,77.50
2019-04-05T22:38:13.554Z,78.60
2019-04-05T22:40:42.060Z,70.83
2019-04-05T22:43:10.550Z,72.33
2019-04-05T22:45:39.358Z,79.23
2019-04-05T22:48:07.823Z,70.53
2019-04-05T22:50:36.357Z,71.33
2019-04-05T22:53:04.850Z,78.60
2019-04-05T22:55:33.331Z,75.00
2019-04-05T22:58:02.086Z,76.07
2019-04-05T23:00:30.581Z,69.70
2019-04-05T23:02:59.447Z,70.13
2019-04-05T23:05:27.929Z,72.10
2019-04-05T23:07:56.499Z,71.47
2019-04-05T23:10:25.024Z,71.57
2019-04-05T23:12:53.506Z,70.33
2019-04-05T23:15:22.029Z,79.07
2019-04-05T23:17:50.539Z,67.77
2019-04-05T23:20:19.359Z,72.50
2019-04-05T23:22:47.893Z,77.60
2019-04-05T23:25:21.747Z,71.80
2019-04-05T23:27:46.602Z,77.20
2019-04-05T23:30:15.099Z,79.70
2019-04-05T23:32:43.601Z,75.33
2019-04-05T23:35:12.092Z,88.67
2019-04-05T23:37:40.572Z,80.37
2019-04-05T23:40:09.168Z,68.80
2019-04-05T23:42:37.990Z,72.97
2019-04-05T23:45:06.552Z,73.77
2019-04-05T23:47:35.035Z,69.00
2019-04-05T23:50:03.548Z,71.77
2019-04-05T23:52:32.037Z,70.60
2019-04-05T23:55:00.510Z,66.67
2019-04-05T23:57:29.295Z,71.87
2019-04-05T23:59:57.755Z,69.23
